Time;durP1;ratioP1;P1;durP2;ratioP2;P2;SDS_P1;SDS_P2;PMS_P1;PMS_P2;Temp;Humidity;BMP_temperature;BMP_pressure;BME280_temperature;BME280_humidity;BME280_pressure;Samples;Min_cycle;Max_cycle;Signal;HPM_P1;HPM_P2
2023/03/18 00:01:04;;;;;;;8.93;6.03;;;;;5.00;95871.00;;;;8466032;28;20245;-72
2023/03/18 00:05:11;;;;;;;10.03;6.50;;;;;4.80;95866.00;;;;8465849;28;20678;-72
2023/03/18 00:09:14;;;;;;;11.20;6.30;;;;;4.70;95867.00;;;;8467000;28;20646;-72
2023/03/18 00:13:19;;;;;;;13.00;6.77;;;;;4.60;95865.00;;;;8464635;28;20371;-72
2023/03/18 00:17:22;;;;;;;12.07;6.57;;;;;4.40;95877.00;;;;8466475;28;20246;-72
2023/03/18 00:21:28;;;;;;;13.50;6.33;;;;;4.30;95875.00;;;;8465341;28;20586;-72
2023/03/18 00:25:31;;;;;;;10.77;6.50;;;;;4.20;95876.00;;;;8465948;28;20631;-71
2023/03/18 00:29:36;;;;;;;16.63;7.07;;;;;4.10;95874.00;;;;8463860;28;20222;-71
2023/03/18 00:33:42;;;;;;;15.37;6.10;;;;;4.00;95873.00;;;;8465017;28;20194;-71
2023/03/18 00:37:47;;;;;;;11.37;6.63;;;;;3.80;95881.00;;;;8465637;28;20196;-71
2023/03/18 00:41:53;;;;;;;13.57;6.07;;;;;3.60;95882.00;;;;8465135;28;20211;-71
2023/03/18 00:46:04;;;;;;;9.10;5.73;;;;;3.60;95895.00;;;;8464835;28;20199;-72
2023/03/18 00:50:09;;;;;;;11.83;6.27;;;;;3.60;95888.00;;;;8465419;28;20726;-72
2023/03/18 00:54:16;;;;;;;9.47;6.07;;;;;3.60;95891.00;;;;8464980;28;20202;-72
2023/03/18 00:58:23;;;;;;;10.00;6.07;;;;;3.50;95899.00;;;;8465334;28;20240;-72
2023/03/18 01:02:33;;;;;;;12.57;6.63;;;;;3.40;95890.00;;;;8464674;28;20215;-72
2023/03/18 01:06:38;;;;;;;12.27;6.00;;;;;3.30;95893.00;;;;8464921;28;20246;-72
2023/03/18 01:10:42;;;;;;;10.97;6.37;;;;;3.20;95889.00;;;;8464960;28;20277;-72
2023/03/18 01:14:46;;;;;;;10.57;6.60;;;;;3.20;95895.00;;;;8464103;28;20197;-71
2023/03/18 01:18:52;;;;;;;10.80;6.17;;;;;3.10;95896.00;;;;8464989;28;20531;-72
2023/03/18 01:22:59;;;;;;;11.73;5.87;;;;;3.00;95900.00;;;;8460866;28;20239;-72
2023/03/18 01:27:02;;;;;;;9.67;5.60;;;;;3.00;95907.00;;;;8467033;28;20230;-72
2023/03/18 01:31:06;;;;;;;11.77;6.27;;;;;2.90;95897.00;;;;8471813;28;20242;-72
2023/03/18 01:35:14;;;;;;;11.17;5.83;;;;;2.80;95905.00;;;;8470379;28;20251;-71
2023/03/18 01:39:18;;;;;;;13.87;5.90;;;;;2.70;95898.00;;;;8470770;28;20201;-72
2023/03/18 01:43:25;;;;;;;11.90;5.87;;;;;2.60;95901.00;;;;8470052;28;20631;-72
2023/03/18 01:47:29;;;;;;;12.57;6.00;;;;;2.60;95897.00;;;;8469520;28;20229;-73
2023/03/18 01:51:35;;;;;;;15.73;6.03;;;;;2.50;95908.00;;;;8470214;28;20201;-72
2023/03/18 01:55:39;;;;;;;10.70;6.20;;;;;2.50;95912.00;;;;8470289;28;20641;-72
2023/03/18 01:59:44;;;;;;;18.50;6.97;;;;;2.50;95906.00;;;;8470912;27;20242;-72
2023/03/18 02:03:50;;;;;;;11.87;6.60;;;;;2.50;95907.00;;;;8469326;28;20250;-72
2023/03/18 02:07:54;;;;;;;14.43;6.27;;;;;2.50;95903.00;;;;8470319;28;20215;-73
2023/03/18 02:11:59;;;;;;;13.73;6.80;;;;;2.40;95905.00;;;;8469679;28;20219;-72
2023/03/18 02:16:09;;;;;;;10.13;6.50;;;;;2.40;95912.00;;;;8468273;28;20240;-72
2023/03/18 02:20:27;;;;;;;13.07;6.63;;;;;2.40;95913.00;;;;8468456;28;20222;-72
2023/03/18 02:24:39;;;;;;;14.70;6.93;;;;;2.40;95912.00;;;;8469140;28;20505;-73
2023/03/18 02:28:46;;;;;;;9.87;6.13;;;;;2.40;95915.00;;;;8469629;28;20226;-73
2023/03/18 02:32:51;;;;;;;11.33;6.37;;;;;2.40;95917.00;;;;8469263;28;20226;-73
2023/03/18 02:36:56;;;;;;;15.63;7.37;;;;;2.40;95923.00;;;;8469681;28;20227;-73
2023/03/18 02:41:07;;;;;;;9.97;6.53;;;;;2.40;95924.00;;;;8468854;28;20198;-73
2023/03/18 02:45:22;;;;;;;11.57;6.80;;;;;2.30;95933.00;;;;8468475;28;20233;-73
2023/03/18 02:49:29;;;;;;;12.17;6.40;;;;;2.30;95918.00;;;;8468177;28;20220;-73
2023/03/18 02:53:33;;;;;;;12.57;6.53;;;;;2.30;95920.00;;;;8468443;28;20260;-73
2023/03/18 02:57:38;;;;;;;15.23;6.43;;;;;2.20;95922.00;;;;8468186;28;20196;-73
2023/03/18 03:01:49;;;;;;;13.50;6.67;;;;;2.10;95924.00;;;;8456884;22;20297;-77
2023/03/18 03:05:59;;;;;;;11.93;6.73;;;;;2.00;95923.00;;;;8335653;28;20271;-73
2023/03/18 03:10:03;;;;;;;16.97;6.47;;;;;2.10;95931.00;;;;8332940;28;20609;-73
2023/03/18 03:14:07;;;;;;;10.40;6.13;;;;;2.00;95938.00;;;;8343126;28;20317;-74
2023/03/18 03:18:11;;;;;;;14.10;6.60;;;;;2.10;95941.00;;;;8345622;28;20198;-74
2023/03/18 03:22:16;;;;;;;12.40;6.90;;;;;2.00;95950.00;;;;8339947;28;20206;-74
2023/03/18 03:26:24;;;;;;;14.90;6.67;;;;;2.10;95956.00;;;;8328035;28;20197;-72
2023/03/18 03:30:27;;;;;;;12.40;6.53;;;;;2.10;95953.00;;;;8342074;28;20228;-72
2023/03/18 03:34:32;;;;;;;15.77;6.87;;;;;2.10;95958.00;;;;8338550;28;20193;-73
2023/03/18 03:38:35;;;;;;;14.07;6.43;;;;;2.00;95957.00;;;;8343192;28;20208;-71
2023/03/18 03:42:46;;;;;;;15.10;7.27;;;;;1.90;95954.00;;;;8343164;28;20201;-72
2023/03/18 03:46:54;;;;;;;13.30;6.60;;;;;1.90;95953.00;;;;8343839;28;20251;-70
2023/03/18 03:50:59;;;;;;;11.33;6.50;;;;;1.90;95955.00;;;;8344064;28;20221;-72
2023/03/18 03:55:05;;;;;;;11.70;6.97;;;;;1.80;95956.00;;;;8339612;28;20203;-71
2023/03/18 03:59:10;;;;;;;15.77;7.30;;;;;1.90;95955.00;;;;8347985;28;20202;-71
2023/03/18 04:03:14;;;;;;;13.37;7.23;;;;;1.80;95958.00;;;;8345105;28;20255;-71
2023/03/18 04:07:29;;;;;;;14.00;6.90;;;;;1.80;95953.00;;;;8341357;28;20198;-70
2023/03/18 04:11:35;;;;;;;16.17;7.23;;;;;1.90;95957.00;;;;8332509;28;20267;-71
2023/03/18 04:15:40;;;;;;;11.60;7.30;;;;;2.00;95955.00;;;;8336102;28;20194;-70
2023/03/18 04:19:43;;;;;;;15.93;7.50;;;;;2.10;95974.00;;;;8333440;28;20199;-71
2023/03/18 04:23:58;;;;;;;15.20;7.27;;;;;2.10;95977.00;;;;8341561;28;20218;-70
2023/03/18 04:28:01;;;;;;;11.70;6.27;;;;;2.10;95975.00;;;;8345993;28;20221;-70
2023/03/18 04:32:07;;;;;;;12.33;7.03;;;;;2.10;95977.00;;;;8348574;28;20201;-69
2023/03/18 04:36:10;;;;;;;12.60;6.53;;;;;2.10;95981.00;;;;8344130;28;20638;-68
2023/03/18 04:40:19;;;;;;;12.00;6.00;;;;;2.10;95981.00;;;;8329820;28;20206;-71
2023/03/18 04:44:24;;;;;;;11.27;6.33;;;;;2.20;95983.00;;;;8344301;28;20215;-69
2023/03/18 04:48:27;;;;;;;10.67;6.13;;;;;2.20;95985.00;;;;8343875;28;20272;-70
2023/03/18 04:52:33;;;;;;;16.03;6.80;;;;;2.10;95981.00;;;;8338418;28;20226;-73
2023/03/18 04:56:39;;;;;;;11.50;6.70;;;;;2.10;95986.00;;;;8344864;28;20194;-69
2023/03/18 05:00:43;;;;;;;14.30;6.77;;;;;2.10;95982.00;;;;8342560;28;20200;-70
2023/03/18 05:04:47;;;;;;;11.87;6.70;;;;;2.10;95975.00;;;;8335387;28;20198;-70
2023/03/18 05:08:50;;;;;;;12.13;6.83;;;;;2.10;95982.00;;;;8341197;28;20222;-70
2023/03/18 05:12:56;;;;;;;15.47;6.80;;;;;2.10;95987.00;;;;8341618;28;20205;-70
2023/03/18 05:17:01;;;;;;;16.43;6.80;;;;;2.20;95978.00;;;;8336801;28;20252;-69
2023/03/18 05:21:06;;;;;;;16.57;6.70;;;;;2.20;95976.00;;;;8340870;28;20649;-70
2023/03/18 05:25:11;;;;;;;11.90;6.50;;;;;2.20;95973.00;;;;8344889;28;20669;-70
2023/03/18 05:29:18;;;;;;;14.07;7.33;;;;;2.20;95982.00;;;;8341549;28;20777;-69
2023/03/18 05:33:24;;;;;;;16.10;7.60;;;;;2.30;95981.00;;;;8336541;28;20196;-71
2023/03/18 05:37:29;;;;;;;14.13;7.10;;;;;2.40;95978.00;;;;8341506;28;20209;-70
2023/03/18 05:41:35;;;;;;;14.53;7.77;;;;;2.50;95973.00;;;;8331890;28;20715;-69
2023/03/18 05:45:44;;;;;;;17.57;7.70;;;;;2.60;95985.00;;;;8336912;28;20203;-69
2023/03/18 05:49:48;;;;;;;11.40;7.37;;;;;2.70;95987.00;;;;8344944;28;20309;-70
2023/03/18 05:53:55;;;;;;;11.53;6.00;;;;;2.80;95980.00;;;;8340140;28;20317;-69
2023/03/18 05:58:04;;;;;;;9.13;6.27;;;;;2.90;95983.00;;;;8346694;28;20609;-72
2023/03/18 06:02:10;;;;;;;14.17;6.80;;;;;3.00;95994.00;;;;8333094;28;20496;-70
2023/03/18 06:06:13;;;;;;;11.87;5.63;;;;;3.10;95996.00;;;;8337414;28;20941;-70
2023/03/18 06:10:21;;;;;;;10.87;5.97;;;;;3.30;96006.00;;;;8334599;28;20231;-71
2023/03/18 06:14:28;;;;;;;11.70;5.93;;;;;3.40;96013.00;;;;8347537;28;20199;-72
2023/03/18 06:18:34;;;;;;;9.37;5.60;;;;;3.60;96013.00;;;;8346062;28;20335;-71
2023/03/18 06:22:37;;;;;;;7.93;5.50;;;;;3.80;96006.00;;;;8349854;28;20195;-71
2023/03/18 06:26:41;;;;;;;9.93;5.97;;;;;4.10;96012.00;;;;8345472;28;20648;-72
2023/03/18 06:30:44;;;;;;;12.60;6.43;;;;;4.30;96016.00;;;;8350508;28;20227;-73
2023/03/18 06:34:51;;;;;;;15.40;7.10;;;;;4.50;96019.00;;;;8346770;28;20645;-72
2023/03/18 06:38:56;;;;;;;13.63;6.17;;;;;4.80;96020.00;;;;8349614;28;20211;-74
2023/03/18 06:43:02;;;;;;;9.93;6.30;;;;;5.10;96027.00;;;;8344805;28;20196;-74
2023/03/18 06:47:07;;;;;;;14.00;6.53;;;;;5.40;96039.00;;;;8346321;28;20207;-73
2023/03/18 06:51:15;;;;;;;14.07;7.17;;;;;5.70;96043.00;;;;8342855;28;20315;-76
2023/03/18 06:55:23;;;;;;;12.93;6.13;;;;;5.90;96051.00;;;;8346436;28;20208;-76
2023/03/18 06:59:26;;;;;;;13.67;5.87;;;;;6.00;96051.00;;;;8341558;28;20210;-75
2023/03/18 07:03:34;;;;;;;10.70;5.87;;;;;6.30;96058.00;;;;8330921;28;20245;-76
2023/03/18 07:07:39;;;;;;;11.27;5.93;;;;;6.50;96061.00;;;;8344285;28;20204;-76
2023/03/18 07:11:43;;;;;;;8.80;6.20;;;;;6.70;96054.00;;;;8346006;28;20274;-80
2023/03/18 07:15:46;;;;;;;17.77;8.13;;;;;7.00;96056.00;;;;8347075;28;20261;-77
2023/03/18 07:19:54;;;;;;;17.30;7.30;;;;;7.30;96070.00;;;;8345793;28;20189;-76
2023/03/18 07:23:59;;;;;;;16.53;7.07;;;;;7.50;96064.00;;;;8346813;28;20251;-77
2023/03/18 07:28:03;;;;;;;11.33;7.53;;;;;7.80;96073.00;;;;8345563;28;20239;-75
2023/03/18 07:32:10;;;;;;;12.97;7.70;;;;;8.10;96071.00;;;;8345104;28;20227;-75
2023/03/18 07:36:15;;;;;;;12.83;6.77;;;;;8.40;96072.00;;;;8338573;28;20204;-75
2023/03/18 07:40:19;;;;;;;11.67;6.80;;;;;8.70;96069.00;;;;8325960;28;20943;-75
2023/03/18 07:44:24;;;;;;;14.77;7.50;;;;;8.90;96076.00;;;;8349965;28;20262;-76
2023/03/18 07:48:28;;;;;;;10.17;6.70;;;;;9.20;96085.00;;;;8345317;28;20201;-75
2023/03/18 07:52:31;;;;;;;14.47;7.20;;;;;9.50;96086.00;;;;8346637;28;20275;-78
2023/03/18 07:56:37;;;;;;;15.53;7.53;;;;;9.80;96091.00;;;;8327316;28;20204;-77
2023/03/18 08:00:45;;;;;;;13.40;6.73;;;;;10.10;96090.00;;;;8350733;28;20200;-77
2023/03/18 08:04:50;;;;;;;15.17;8.33;;;;;10.30;96088.00;;;;8340740;28;20589;-77
2023/03/18 08:08:54;;;;;;;17.17;8.57;;;;;10.60;96085.00;;;;8339579;28;20773;-78
2023/03/18 08:12:58;;;;;;;14.50;8.00;;;;;10.80;96097.00;;;;8340311;28;20896;-77
2023/03/18 08:17:02;;;;;;;10.10;6.47;;;;;11.00;96090.00;;;;8342933;28;20736;-76
2023/03/18 08:21:08;;;;;;;13.95;6.03;;;;;11.10;96096.00;;;;8344230;28;20804;-76
2023/03/18 08:25:14;;;;;;;13.98;6.93;;;;;11.20;96098.00;;;;8335833;28;20207;-76
2023/03/18 08:29:22;;;;;;;12.05;6.40;;;;;11.50;96108.00;;;;8348748;28;20205;-77
2023/03/18 08:33:29;;;;;;;10.45;6.07;;;;;11.80;96105.00;;;;8340161;28;20244;-74
2023/03/18 08:37:35;;;;;;;10.05;6.78;;;;;12.00;96106.00;;;;8343494;28;20243;-77
2023/03/18 08:41:39;;;;;;;11.48;6.97;;;;;12.20;96113.00;;;;8348035;28;20284;-76
2023/03/18 08:45:46;;;;;;;15.68;6.60;;;;;12.40;96114.00;;;;8340094;28;20232;-76
2023/03/18 08:50:02;;;;;;;11.82;6.47;;;;;12.60;96108.00;;;;8334564;28;20316;-76
2023/03/18 08:54:07;;;;;;;10.40;6.55;;;;;12.80;96112.00;;;;8344006;28;20216;-73
2023/03/18 08:58:12;;;;;;;9.75;6.32;;;;;13.00;96115.00;;;;8322591;28;20216;-76
2023/03/18 09:02:19;;;;;;;10.90;6.55;;;;;13.20;96111.00;;;;8343359;28;20285;-76
2023/03/18 09:06:22;;;;;;;15.85;7.30;;;;;13.50;96112.00;;;;8338310;28;20208;-76
2023/03/18 09:10:29;;;;;;;11.50;7.05;;;;;13.80;96109.00;;;;8339722;28;21180;-74
2023/03/18 09:14:41;;;;;;;10.18;6.40;;;;;14.00;96119.00;;;;8341121;28;20231;-76
2023/03/18 09:18:47;;;;;;;14.35;7.22;;;;;14.20;96126.00;;;;8341392;28;20785;-75
2023/03/18 09:22:51;;;;;;;12.00;7.03;;;;;14.40;96119.00;;;;8337629;28;20619;-76
2023/03/18 09:26:54;;;;;;;13.10;7.20;;;;;14.60;96121.00;;;;8333988;28;20198;-75
2023/03/18 09:31:00;;;;;;;13.57;7.65;;;;;14.60;96122.00;;;;8343196;28;21190;-74
2023/03/18 09:35:05;;;;;;;12.82;7.28;;;;;14.70;96119.00;;;;8332221;28;20205;-73
2023/03/18 09:39:17;;;;;;;11.35;6.70;;;;;15.00;96113.00;;;;8331104;28;20182;-73
2023/03/18 09:43:33;;;;;;;13.00;7.38;;;;;15.80;96123.00;;;;8330228;28;20202;-73
2023/03/18 09:48:06;;;;;;;14.88;7.38;;;;;16.00;96123.00;;;;8331337;28;20220;-73
2023/03/18 09:52:18;;;;;;;16.17;7.90;;;;;16.30;96126.00;;;;8337640;28;20607;-73
2023/03/18 09:56:28;;;;;;;12.02;7.63;;;;;16.50;96115.00;;;;8336042;28;20638;-73
2023/03/18 10:00:36;;;;;;;13.77;8.18;;;;;16.60;96120.00;;;;8337382;28;20284;-73
2023/03/18 10:04:44;;;;;;;14.80;8.13;;;;;16.80;96126.00;;;;8337013;28;20714;-73
2023/03/18 10:09:00;;;;;;;12.68;7.70;;;;;16.80;96123.00;;;;8337022;28;20590;-73
2023/03/18 10:13:13;;;;;;;11.00;6.97;;;;;17.10;96120.00;;;;8337111;28;20720;-73
2023/03/18 10:17:27;;;;;;;11.85;8.25;;;;;17.40;96119.00;;;;8334215;28;20205;-73
2023/03/18 10:21:40;;;;;;;11.00;7.40;;;;;17.70;96115.00;;;;8336588;28;20216;-73
2023/03/18 10:25:53;;;;;;;14.10;7.65;;;;;17.90;96123.00;;;;8336004;28;20197;-73
2023/03/18 10:30:05;;;;;;;11.38;7.75;;;;;17.90;96120.00;;;;8335701;28;20190;-73
2023/03/18 10:34:14;;;;;;;13.38;7.60;;;;;18.10;96128.00;;;;8335345;28;20251;-72
2023/03/18 10:38:24;;;;;;;14.15;7.55;;;;;18.30;96119.00;;;;8333542;28;20186;-73
2023/03/18 10:42:33;;;;;;;11.70;7.75;;;;;18.30;96113.00;;;;8335261;28;20193;-73
2023/03/18 10:46:37;;;;;;;10.55;7.30;;;;;18.20;96112.00;;;;8333440;28;20182;-73
2023/03/18 10:50:56;;;;;;;15.07;7.72;;;;;18.40;96105.00;;;;8335973;28;20630;-73
2023/03/18 10:54:59;;;;;;;13.30;8.15;;;;;18.60;96113.00;;;;8333441;28;20696;-73
2023/03/18 10:59:10;;;;;;;10.40;7.05;;;;;18.50;96104.00;;;;8335119;28;20534;-73
2023/03/18 11:03:21;;;;;;;10.77;7.22;;;;;18.50;96097.00;;;;8335297;28;20233;-73
2023/03/18 11:07:27;;;;;;;13.20;8.00;;;;;18.60;96099.00;;;;8334887;28;20216;-72
2023/03/18 11:11:33;;;;;;;12.75;7.53;;;;;18.70;96094.00;;;;8335080;28;20225;-73
2023/03/18 11:15:40;;;;;;;11.80;7.18;;;;;18.80;96091.00;;;;8335196;28;20630;-73
2023/03/18 11:19:47;;;;;;;12.88;6.95;;;;;18.90;96083.00;;;;8312939;28;20197;-72
2023/03/18 11:24:09;;;;;;;9.32;6.78;;;;;19.00;96089.00;;;;8335031;28;20198;-72
2023/03/18 11:28:25;;;;;;;13.73;7.38;;;;;19.20;96083.00;;;;8334417;28;20193;-72
2023/03/18 11:32:32;;;;;;;12.77;6.65;;;;;19.20;96086.00;;;;8333461;28;20213;-72
2023/03/18 11:36:40;;;;;;;10.48;6.95;;;;;19.10;96083.00;;;;8334954;28;20189;-71
2023/03/18 11:40:43;;;;;;;15.55;7.57;;;;;19.10;96069.00;;;;8334345;28;20220;-72
2023/03/18 11:44:48;;;;;;;13.80;8.10;;;;;19.10;96073.00;;;;8315998;28;20258;-72
2023/03/18 11:48:53;;;;;;;9.25;6.43;;;;;19.20;96070.00;;;;8332501;28;20651;-72
2023/03/18 11:53:04;;;;;;;12.13;6.53;;;;;19.10;96062.00;;;;8330573;28;20522;-71
2023/03/18 11:57:18;;;;;;;14.38;7.38;;;;;19.10;96057.00;;;;8330461;28;20194;-70
2023/03/18 12:01:30;;;;;;;10.40;7.10;;;;;19.00;96056.00;;;;8333021;28;20336;-69
2023/03/18 12:05:46;;;;;;;12.90;6.88;;;;;18.80;96045.00;;;;8332292;28;20596;-70
2023/03/18 12:09:59;;;;;;;11.98;6.80;;;;;18.60;96047.00;;;;8332416;28;20247;-70
2023/03/18 12:14:08;;;;;;;13.63;6.25;;;;;18.60;96049.00;;;;8327834;28;20562;-72
2023/03/18 12:18:28;;;;;;;16.00;6.85;;;;;18.50;96038.00;;;;8331032;28;20239;-71
2023/03/18 12:22:47;;;;;;;14.57;7.07;;;;;18.30;96031.00;;;;8328983;28;20235;-71
2023/03/18 12:27:03;;;;;;;10.98;7.53;;;;;18.20;96031.00;;;;8333826;28;20565;-72
2023/03/18 12:31:28;;;;;;;15.35;7.43;;;;;18.00;96020.00;;;;8332874;28;20205;-72
2023/03/18 12:35:48;;;;;;;13.23;7.38;;;;;18.00;96014.00;;;;8332795;28;20197;-71
2023/03/18 12:40:11;;;;;;;12.52;7.28;;;;;17.90;96012.00;;;;8332807;28;20193;-71
2023/03/18 12:44:28;;;;;;;15.15;6.38;;;;;17.90;96005.00;;;;8332894;28;20182;-71
2023/03/18 12:48:36;;;;;;;13.88;7.25;;;;;18.10;96002.00;;;;8331805;28;20193;-71
2023/03/18 12:52:53;;;;;;;14.63;6.68;;;;;18.10;96007.00;;;;8316295;28;20629;-71
2023/03/18 12:57:04;;;;;;;16.83;7.35;;;;;18.20;96004.00;;;;8332000;28;20193;-71
2023/03/18 13:01:16;;;;;;;12.25;7.10;;;;;18.30;95994.00;;;;8331635;28;20279;-71
2023/03/18 13:05:28;;;;;;;19.35;7.75;;;;;18.40;96003.00;;;;8315354;28;20201;-71
2023/03/18 13:09:39;;;;;;;14.57;7.75;;;;;18.40;96008.00;;;;8331871;28;20550;-71
2023/03/18 13:13:50;;;;;;;17.02;8.02;;;;;18.60;96006.00;;;;8332584;28;20271;-71
2023/03/18 13:17:57;;;;;;;16.48;8.57;;;;;18.60;96015.00;;;;8332198;28;20259;-71
2023/03/18 13:22:19;;;;;;;13.90;7.30;;;;;18.60;96019.00;;;;8334509;28;20216;-71
2023/03/18 13:26:31;;;;;;;17.45;8.23;;;;;18.70;96015.00;;;;8337954;28;20642;-71
2023/03/18 13:30:52;;;;;;;16.63;8.13;;;;;18.80;96012.00;;;;8338956;28;20259;-71
2023/03/18 13:35:15;;;;;;;12.90;7.50;;;;;18.90;96015.00;;;;8338529;28;20263;-71
2023/03/18 13:39:33;;;;;;;16.13;8.38;;;;;18.90;96012.00;;;;8337960;28;20197;-71
2023/03/18 13:43:40;;;;;;;14.90;7.28;;;;;18.90;96006.00;;;;8337664;28;20193;-71
2023/03/18 13:47:54;;;;;;;15.85;8.63;;;;;18.90;96000.00;;;;8337304;28;20201;-71
2023/03/18 13:52:01;;;;;;;13.75;7.68;;;;;18.90;95998.00;;;;8337549;28;20221;-71
2023/03/18 13:56:06;;;;;;;18.88;8.10;;;;;18.90;96003.00;;;;8338030;28;20224;-71
2023/03/18 14:00:22;;;;;;;16.98;8.13;;;;;19.00;96002.00;;;;8337781;28;20277;-71
2023/03/18 14:04:31;;;;;;;15.57;7.65;;;;;19.10;95994.00;;;;8337917;28;20279;-71
2023/03/18 14:08:47;;;;;;;14.07;7.63;;;;;19.30;95982.00;;;;8337150;28;20299;-71
2023/03/18 14:12:53;;;;;;;16.52;7.25;;;;;19.60;95967.00;;;;8337777;28;20308;-71
2023/03/18 14:16:56;;;;;;;17.85;8.65;;;;;19.80;95971.00;;;;8336881;28;20194;-71
2023/03/18 14:21:03;;;;;;;14.05;7.72;;;;;20.00;95970.00;;;;8337436;28;20193;-71
2023/03/18 14:25:41;;;;;;;20.27;8.60;;;;;19.90;95980.00;;;;8336717;28;20197;-71
2023/03/18 14:29:47;;;;;;;18.17;8.15;;;;;19.90;95971.00;;;;8334889;28;20271;-71
2023/03/18 14:33:57;;;;;;;15.52;8.23;;;;;20.00;95980.00;;;;8335034;28;20221;-71
2023/03/18 14:38:09;;;;;;;16.55;8.55;;;;;20.10;95981.00;;;;8336274;28;20194;-71
2023/03/18 14:42:27;;;;;;;14.40;7.90;;;;;20.20;95979.00;;;;8336190;28;20201;-71
2023/03/18 14:46:40;;;;;;;14.00;8.48;;;;;20.10;95975.00;;;;8335256;28;20196;-71
2023/03/18 14:50:48;;;;;;;14.50;7.32;;;;;20.30;95973.00;;;;8335786;28;20251;-71
2023/03/18 14:54:55;;;;;;;14.48;7.22;;;;;20.30;95972.00;;;;8334921;28;20627;-71
2023/03/18 14:58:58;;;;;;;16.38;7.65;;;;;20.30;95963.00;;;;8335133;28;20197;-71
2023/03/18 15:03:08;;;;;;;15.25;7.88;;;;;20.20;95954.00;;;;8335806;28;20226;-71
2023/03/18 15:07:17;;;;;;;16.02;7.88;;;;;20.20;95960.00;;;;8350467;28;20189;-71
2023/03/18 15:11:23;;;;;;;14.30;7.63;;;;;20.10;95961.00;;;;8368419;28;20626;-71
2023/03/18 15:15:27;;;;;;;14.38;7.00;;;;;20.10;95950.00;;;;8367555;28;20224;-71
2023/03/18 15:19:35;;;;;;;14.15;7.57;;;;;20.20;95956.00;;;;8367861;28;20196;-71
2023/03/18 15:23:42;;;;;;;15.82;7.30;;;;;20.10;95959.00;;;;8368526;28;20242;-71
2023/03/18 15:27:49;;;;;;;12.20;7.65;;;;;20.10;95960.00;;;;8368414;28;20546;-71
2023/03/18 15:31:55;;;;;;;17.73;7.88;;;;;20.00;95965.00;;;;8366231;28;20200;-71
2023/03/18 15:36:06;;;;;;;16.55;7.95;;;;;20.00;95958.00;;;;8367449;28;20193;-71
2023/03/18 15:40:30;;;;;;;13.38;7.70;;;;;19.90;95957.00;;;;8367222;28;20193;-71
2023/03/18 15:44:39;;;;;;;15.55;8.45;;;;;19.90;95954.00;;;;8365119;28;20257;-71
2023/03/18 15:48:53;;;;;;;19.10;8.30;;;;;19.80;95953.00;;;;8367585;28;20244;-71
2023/03/18 15:53:06;;;;;;;22.50;8.55;;;;;19.70;95959.00;;;;8366293;28;20225;-71
2023/03/18 15:57:20;;;;;;;13.95;7.97;;;;;19.60;95956.00;;;;8366149;28;20235;-71
2023/03/18 16:01:25;;;;;;;13.10;7.70;;;;;19.50;95948.00;;;;8366394;28;20286;-71
2023/03/18 16:05:28;;;;;;;16.88;8.02;;;;;19.30;95957.00;;;;8349481;28;20672;-71
2023/03/18 16:09:33;;;;;;;22.33;8.48;;;;;19.00;95957.00;;;;8366425;28;20193;-71
2023/03/18 16:13:37;;;;;;;24.33;13.32;;;;;18.50;95949.00;;;;8366491;28;20619;-71
2023/03/18 16:17:47;;;;;;;22.50;10.75;;;;;18.10;95960.00;;;;8365025;28;20223;-71
2023/03/18 16:21:50;;;;;;;19.38;8.90;;;;;17.90;95970.00;;;;8366800;28;20276;-71
2023/03/18 16:26:11;;;;;;;17.85;8.85;;;;;17.60;95979.00;;;;8366009;28;20203;-71
2023/03/18 16:30:18;;;;;;;31.60;9.98;;;;;17.40;95971.00;;;;8365813;28;20192;-71
2023/03/18 16:34:22;;;;;;;23.85;8.60;;;;;17.30;95974.00;;;;8364859;28;20216;-71
2023/03/18 16:38:27;;;;;;;17.75;8.27;;;;;17.10;95982.00;;;;8365563;28;20196;-71
2023/03/18 16:42:35;;;;;;;20.30;9.30;;;;;16.90;95981.00;;;;8365416;28;20215;-71
2023/03/18 16:46:39;;;;;;;22.75;9.10;;;;;16.70;95986.00;;;;8364402;28;20280;-71
2023/03/18 16:50:48;;;;;;;18.60;9.27;;;;;16.60;95988.00;;;;8365330;28;20223;-70
2023/03/18 16:54:51;;;;;;;22.35;8.65;;;;;16.40;95992.00;;;;8365133;28;20224;-71
2023/03/18 16:58:54;;;;;;;22.73;9.05;;;;;16.30;95984.00;;;;8365384;28;20196;-71
2023/03/18 17:02:58;;;;;;;18.17;8.48;;;;;16.10;95990.00;;;;8365701;28;20608;-71
2023/03/18 17:07:04;;;;;;;31.85;10.60;;;;;15.90;95987.00;;;;8364988;28;20266;-71
2023/03/18 17:11:17;;;;;;;20.95;9.32;;;;;15.70;95988.00;;;;8365427;28;20271;-71
2023/03/18 17:15:25;;;;;;;18.23;9.52;;;;;15.50;95992.00;;;;8363942;28;20228;-71
2023/03/18 17:19:30;;;;;;;28.85;12.43;;;;;15.20;95990.00;;;;8360139;28;20671;-71
2023/03/18 17:23:38;;;;;;;35.00;13.55;;;;;14.80;95992.00;;;;8363909;28;20204;-71
2023/03/18 17:27:45;;;;;;;23.30;10.35;;;;;14.40;95984.00;;;;8363679;28;20196;-71
2023/03/18 17:31:48;;;;;;;19.75;9.05;;;;;14.10;95989.00;;;;8361379;28;20201;-70
2023/03/18 17:35:52;;;;;;;17.55;7.20;;;;;13.70;95999.00;;;;8361289;28;20224;-70
2023/03/18 17:40:02;;;;;;;17.60;7.28;;;;;13.30;95994.00;;;;8362575;28;20225;-70
2023/03/18 17:44:21;;;;;;;12.35;6.97;;;;;13.00;95995.00;;;;8364362;28;20196;-70
2023/03/18 17:48:30;;;;;;;17.42;8.32;;;;;12.80;95994.00;;;;8364679;28;20183;-70
2023/03/18 17:52:33;;;;;;;19.40;7.53;;;;;12.70;95998.00;;;;8363878;28;20382;-69
2023/03/18 17:56:41;;;;;;;19.23;8.60;;;;;12.50;95999.00;;;;8364525;28;20649;-70
2023/03/18 18:00:45;;;;;;;19.10;7.82;;;;;12.40;95995.00;;;;8363233;28;20203;-70
2023/03/18 18:04:48;;;;;;;23.40;8.57;;;;;12.30;95988.00;;;;8363350;28;20222;-70
2023/03/18 18:08:59;;;;;;;24.08;8.38;;;;;12.10;95994.00;;;;8366072;28;20490;-70
2023/03/18 18:13:06;;;;;;;22.05;7.88;;;;;12.00;95994.00;;;;8370096;28;20216;-70
2023/03/18 18:17:15;;;;;;;16.35;7.68;;;;;11.90;95997.00;;;;8369849;28;20195;-71
2023/03/18 18:21:22;;;;;;;18.88;8.25;;;;;11.70;95987.00;;;;8369918;28;20584;-70
2023/03/18 18:25:35;;;;;;;18.77;7.70;;;;;11.60;95993.00;;;;8369273;28;20196;-70
2023/03/18 18:29:40;;;;;;;19.02;7.78;;;;;11.40;95984.00;;;;8368748;28;20195;-70
2023/03/18 18:33:46;;;;;;;17.55;7.63;;;;;11.20;95989.00;;;;8367564;28;20280;-69
2023/03/18 18:37:49;;;;;;;19.48;9.15;;;;;11.10;95994.00;;;;8369299;28;20190;-71
2023/03/18 18:41:58;;;;;;;25.85;10.73;;;;;11.10;96000.00;;;;8364324;28;20185;-70
2023/03/18 18:46:03;;;;;;;17.30;7.93;;;;;11.10;95996.00;;;;8367188;28;20203;-70
2023/03/18 18:50:06;;;;;;;16.00;7.88;;;;;11.10;95997.00;;;;8334600;28;20200;-70
2023/03/18 18:54:14;;;;;;;21.52;9.10;;;;;11.10;95992.00;;;;8334307;28;20645;-70
2023/03/18 18:58:21;;;;;;;18.73;8.43;;;;;11.00;95994.00;;;;8334404;28;20206;-69
2023/03/18 19:02:37;;;;;;;19.35;8.27;;;;;10.90;95989.00;;;;8335436;28;20681;-69
2023/03/18 19:06:41;;;;;;;23.15;9.52;;;;;10.90;95981.00;;;;8333927;28;20285;-70
2023/03/18 19:10:44;;;;;;;21.08;9.13;;;;;10.70;95979.00;;;;8333441;28;20248;-71
2023/03/18 19:14:53;;;;;;;18.63;8.95;;;;;10.50;95977.00;;;;8333450;28;20277;-71
2023/03/18 19:19:00;;;;;;;24.52;9.57;;;;;10.30;95978.00;;;;8332985;28;20205;-70
2023/03/18 19:23:07;;;;;;;20.25;9.35;;;;;10.10;95978.00;;;;8334445;28;20193;-70
2023/03/18 19:27:22;;;;;;;22.10;8.85;;;;;9.90;95975.00;;;;8334793;28;20244;-70
2023/03/18 19:31:29;;;;;;;23.27;8.77;;;;;9.80;95976.00;;;;8333765;28;20261;-71
2023/03/18 19:35:34;;;;;;;20.20;8.93;;;;;9.60;95974.00;;;;8333696;28;20221;-71
2023/03/18 19:39:40;;;;;;;19.30;9.07;;;;;9.50;95971.00;;;;8315678;28;20197;-70
2023/03/18 19:43:44;;;;;;;15.90;8.10;;;;;9.40;95960.00;;;;8333507;28;20263;-71
2023/03/18 19:47:50;;;;;;;23.67;9.50;;;;;9.30;95958.00;;;;8334005;28;20658;-71
2023/03/18 19:51:55;;;;;;;21.07;8.13;;;;;9.30;95973.00;;;;8333518;28;20607;-72
2023/03/18 19:55:58;;;;;;;21.47;9.17;;;;;9.30;95984.00;;;;8333016;28;20229;-71
2023/03/18 20:00:15;;;;;;;21.40;8.40;;;;;9.10;95993.00;;;;8331084;28;20259;-72
2023/03/18 20:04:20;;;;;;;18.63;7.90;;;;;9.00;95992.00;;;;8333478;28;20561;-71
2023/03/18 20:08:25;;;;;;;21.83;8.35;;;;;8.90;95992.00;;;;8333252;28;20208;-71
2023/03/18 20:12:32;;;;;;;19.80;8.30;;;;;8.70;95995.00;;;;8333419;28;20209;-72
2023/03/18 20:16:36;;;;;;;16.50;7.77;;;;;8.60;95996.00;;;;8332018;28;20228;-71
2023/03/18 20:20:41;;;;;;;19.33;7.80;;;;;8.40;96002.00;;;;8332428;28;20523;-72
2023/03/18 20:24:49;;;;;;;18.33;8.27;;;;;8.30;96001.00;;;;8332815;28;20197;-71
2023/03/18 20:28:57;;;;;;;19.53;8.37;;;;;8.20;96008.00;;;;8333235;28;20210;-72
2023/03/18 20:33:04;;;;;;;19.83;7.23;;;;;8.10;96013.00;;;;8330755;28;20674;-72